createdAt,value
2018-04-14T00:00:07.895Z,0.60
2018-04-14T00:02:34.863Z,0.50
2018-04-14T00:05:01.066Z,1.23
2018-04-14T00:07:28.046Z,2.00
2018-04-14T00:09:54.263Z,0.50
2018-04-14T00:12:20.507Z,2.07
2018-04-14T00:14:46.743Z,2.77
2018-04-14T00:17:12.904Z,0.70
2018-04-14T00:19:39.143Z,5.97
2018-04-14T00:22:05.347Z,0.60
2018-04-14T00:24:31.490Z,3.27
2018-04-14T00:26:57.636Z,0.70
2018-04-14T00:29:24.624Z,9.53
2018-04-14T00:31:50.856Z,1.53
2018-04-14T00:34:17.093Z,5.80
2018-04-14T00:36:43.332Z,2.23
2018-04-14T00:39:09.567Z,4.23
2018-04-14T00:41:35.731Z,2.80
2018-04-14T00:44:01.948Z,1.87
2018-04-14T00:46:29.212Z,0.53
2018-04-14T00:48:56.198Z,0.67
2018-04-14T00:51:22.428Z,0.50
2018-04-14T00:53:48.700Z,0.83
2018-04-14T00:56:15.651Z,2.70
2018-04-14T00:58:42.636Z,1.00
2018-04-14T01:01:08.852Z,1.17
2018-04-14T01:03:35.158Z,1.23
2018-04-14T01:06:02.143Z,0.60
2018-04-14T01:08:28.371Z,0.50
2018-04-14T01:10:54.523Z,2.07
2018-04-14T01:13:20.756Z,3.33
2018-04-14T01:15:46.910Z,1.10
2018-04-14T01:18:13.898Z,0.60
2018-04-14T01:20:40.099Z,2.50
2018-04-14T01:23:06.276Z,0.60
2018-04-14T01:25:32.483Z,2.17
2018-04-14T01:27:58.760Z,0.83
2018-04-14T01:30:25.687Z,0.67
2018-04-14T01:32:51.838Z,3.80
2018-04-14T01:35:18.803Z,0.50
2018-04-14T01:37:45.034Z,0.73
2018-04-14T01:40:11.292Z,2.53
2018-04-14T01:42:37.540Z,0.50
2018-04-14T01:45:03.795Z,0.60
2018-04-14T01:47:30.840Z,8.83
2018-04-14T01:49:57.820Z,0.50
2018-04-14T01:52:24.014Z,4.33
2018-04-14T01:54:50.979Z,2.40
2018-04-14T01:57:17.132Z,0.60
2018-04-14T01:59:43.363Z,4.63
2018-04-14T02:02:09.527Z,1.30
2018-04-14T02:04:35.764Z,0.60
2018-04-14T02:07:02.736Z,0.50
2018-04-14T02:09:28.958Z,0.60
2018-04-14T02:11:55.911Z,3.10
2018-04-14T02:14:22.168Z,1.30
2018-04-14T02:16:48.400Z,0.87
2018-04-14T02:19:15.374Z,2.10
2018-04-14T02:21:43.655Z,5.67
2018-04-14T02:24:09.880Z,0.47
2018-04-14T02:26:36.047Z,0.90
2018-04-14T02:29:02.271Z,0.87
2018-04-14T02:31:28.558Z,6.83
2018-04-14T02:33:54.752Z,2.93
2018-04-14T02:36:20.915Z,0.53
2018-04-14T02:38:47.147Z,0.50
2018-04-14T02:41:14.110Z,0.50
2018-04-14T02:43:41.050Z,0.50
2018-04-14T02:46:07.317Z,0.70
2018-04-14T02:48:33.564Z,0.60
2018-04-14T02:50:59.797Z,0.50
2018-04-14T02:53:26.049Z,0.50
2018-04-14T02:55:52.284Z,0.50
2018-04-14T02:58:18.524Z,0.50
2018-04-14T03:00:44.763Z,0.60
2018-04-14T03:03:11.716Z,0.50
2018-04-14T03:05:37.863Z,2.80
2018-04-14T03:08:04.015Z,0.50
2018-04-14T03:10:30.260Z,0.50
2018-04-14T03:12:56.509Z,1.10
2018-04-14T03:15:23.486Z,1.63
2018-04-14T03:17:49.611Z,0.60
2018-04-14T03:20:15.827Z,1.00
2018-04-14T03:22:41.977Z,0.50
2018-04-14T03:25:08.231Z,0.50
2018-04-14T03:27:34.524Z,0.50
2018-04-14T03:30:00.724Z,0.57
2018-04-14T03:32:27.652Z,0.50
2018-04-14T03:34:54.635Z,0.60
2018-04-14T03:37:20.864Z,2.63
2018-04-14T03:39:47.848Z,1.77
2018-04-14T03:42:14.052Z,0.83
2018-04-14T03:44:40.198Z,0.50
2018-04-14T03:47:06.464Z,0.70
2018-04-14T03:49:33.419Z,1.67
2018-04-14T03:52:00.279Z,0.63
2018-04-14T03:54:26.554Z,0.50
2018-04-14T03:56:52.765Z,0.87
2018-04-14T03:59:19.008Z,0.50
2018-04-14T04:01:45.235Z,0.50
2018-04-14T04:04:11.471Z,1.23
2018-04-14T04:06:37.606Z,1.07
2018-04-14T04:09:03.767Z,0.60
2018-04-14T04:11:30.725Z,0.70
2018-04-14T04:13:57.676Z,8.43
2018-04-14T04:16:23.930Z,0.50
2018-04-14T04:19:02.461Z,0.50
2018-04-14T04:21:40.899Z,0.50
2018-04-14T04:24:19.271Z,1.30
2018-04-14T04:26:45.448Z,2.50
2018-04-14T04:29:13.243Z,0.50
2018-04-14T04:31:39.472Z,0.80
2018-04-14T04:34:05.638Z,2.10
2018-04-14T04:36:31.842Z,0.50
2018-04-14T04:38:57.988Z,1.80
2018-04-14T04:41:24.972Z,0.93
2018-04-14T04:43:51.915Z,1.43
2018-04-14T04:46:18.884Z,0.60
2018-04-14T04:48:45.111Z,0.50
2018-04-14T04:51:11.288Z,0.50
2018-04-14T04:53:37.503Z,1.27
2018-04-14T04:56:03.773Z,27.77
2018-04-14T04:58:30.723Z,0.50
2018-04-14T05:00:57.693Z,6.37
2018-04-14T05:03:23.907Z,0.60
2018-04-14T05:05:50.050Z,3.70
2018-04-14T05:08:16.299Z,0.60
2018-04-14T05:10:42.516Z,0.80
2018-04-14T05:13:08.692Z,0.97
2018-04-14T05:15:35.619Z,1.10
2018-04-14T05:18:01.768Z,0.50
2018-04-14T05:20:28.749Z,1.70
2018-04-14T05:22:54.971Z,1.10
2018-04-14T05:25:21.103Z,0.50
2018-04-14T05:27:47.293Z,0.50
2018-04-14T05:30:14.207Z,3.23
2018-04-14T05:32:40.348Z,0.60
2018-04-14T05:35:06.496Z,0.70
2018-04-14T05:37:33.462Z,3.37
2018-04-14T05:39:59.727Z,0.70
2018-04-14T05:42:25.922Z,0.50
2018-04-14T05:44:52.091Z,0.50
2018-04-14T05:47:18.319Z,0.50
2018-04-14T05:49:44.555Z,0.50
2018-04-14T05:52:11.428Z,5.30
2018-04-14T05:54:38.382Z,0.60
2018-04-14T05:57:04.535Z,0.57
2018-04-14T05:59:30.763Z,0.57
2018-04-14T06:01:56.929Z,0.60
2018-04-14T06:04:23.171Z,0.90
2018-04-14T06:06:50.104Z,0.60
2018-04-14T06:09:16.396Z,0.60
2018-04-14T06:11:42.600Z,0.50
2018-04-14T06:14:08.855Z,0.90
2018-04-14T06:16:35.084Z,0.50
2018-04-14T06:19:01.335Z,0.50
2018-04-14T06:21:27.564Z,0.50
2018-04-14T06:23:53.718Z,1.10
2018-04-14T06:26:20.667Z,0.67
2018-04-14T06:28:47.648Z,1.00
2018-04-14T06:31:13.855Z,0.50
2018-04-14T06:33:39.993Z,0.63
2018-04-14T06:36:06.155Z,0.50
2018-04-14T06:38:32.395Z,0.50
2018-04-14T06:40:58.637Z,0.77
2018-04-14T06:43:24.882Z,0.50
2018-04-14T06:45:51.879Z,0.60
2018-04-14T06:48:18.074Z,0.60
2018-04-14T06:50:44.232Z,1.90
2018-04-14T06:53:10.451Z,0.50
2018-04-14T06:55:36.582Z,1.70
2018-04-14T06:58:02.765Z,0.50
2018-04-14T07:00:28.987Z,0.60
2018-04-14T07:02:55.957Z,0.50
2018-04-14T07:05:22.176Z,0.50
2018-04-14T07:07:48.450Z,0.50
2018-04-14T07:10:14.700Z,0.60
2018-04-14T07:12:40.931Z,0.50
2018-04-14T07:15:07.171Z,0.60
2018-04-14T07:17:34.112Z,1.10
2018-04-14T07:20:00.575Z,1.57
2018-04-14T07:22:26.787Z,2.00
2018-04-14T07:24:53.783Z,0.50
2018-04-14T07:27:20.008Z,0.50
2018-04-14T07:29:46.144Z,0.50
2018-04-14T07:32:12.411Z,0.60
2018-04-14T07:34:39.372Z,2.63
2018-04-14T07:37:05.646Z,0.57
2018-04-14T07:39:31.838Z,0.50
2018-04-14T07:41:58.065Z,0.50
2018-04-14T07:44:24.346Z,0.53
2018-04-14T07:46:50.604Z,0.50
2018-04-14T07:49:17.561Z,0.50
2018-04-14T07:51:43.865Z,0.70
2018-04-14T07:54:10.024Z,0.50
2018-04-14T07:56:36.231Z,0.50
2018-04-14T07:59:03.110Z,0.60
2018-04-14T08:01:29.270Z,0.50
2018-04-14T08:03:55.487Z,0.57
2018-04-14T08:06:21.660Z,0.50
2018-04-14T08:08:48.535Z,0.67
2018-04-14T08:11:14.702Z,0.50
2018-04-14T08:13:47.456Z,0.50
2018-04-14T08:16:14.495Z,0.70
2018-04-14T08:18:40.757Z,0.60
2018-04-14T08:21:07.005Z,0.50
2018-04-14T08:23:33.907Z,0.80
2018-04-14T08:26:00.066Z,0.70
2018-04-14T08:28:26.216Z,0.80
2018-04-14T08:30:53.240Z,0.50
2018-04-14T08:33:19.359Z,0.50
2018-04-14T08:35:45.604Z,4.83
2018-04-14T08:38:12.555Z,0.50
2018-04-14T08:40:39.468Z,0.97
2018-04-14T08:43:05.628Z,2.17
2018-04-14T08:45:32.620Z,0.70
2018-04-14T08:47:58.831Z,0.60
2018-04-14T08:50:25.468Z,2.43
2018-04-14T08:52:51.615Z,3.50
2018-04-14T08:55:17.867Z,0.50
2018-04-14T08:57:44.188Z,1.10
2018-04-14T09:00:13.429Z,4.23
2018-04-14T09:02:40.312Z,4.50
2018-04-14T09:05:06.451Z,1.27
2018-04-14T09:07:33.415Z,1.47
2018-04-14T09:09:59.572Z,0.83
2018-04-14T09:12:26.610Z,0.60
2018-04-14T09:14:54.285Z,0.60
2018-04-14T09:17:21.175Z,15.77
2018-04-14T09:19:47.373Z,0.60
2018-04-14T09:22:13.591Z,0.60
2018-04-14T09:24:39.760Z,1.47
2018-04-14T09:27:05.987Z,0.60
2018-04-14T09:29:32.228Z,3.13
2018-04-14T09:31:58.492Z,2.40
2018-04-14T09:34:25.443Z,1.00
2018-04-14T09:36:51.655Z,0.50
2018-04-14T09:39:17.884Z,0.50
2018-04-14T09:41:44.772Z,0.70
2018-04-14T09:44:11.883Z,0.70
2018-04-14T09:46:38.823Z,2.83
2018-04-14T09:49:05.747Z,0.50
2018-04-14T09:51:32.000Z,0.50
2018-04-14T09:53:58.943Z,0.50
2018-04-14T09:56:25.987Z,4.30
2018-04-14T09:58:52.147Z,2.60
2018-04-14T10:01:24.328Z,0.50
2018-04-14T10:03:50.474Z,0.50
2018-04-14T10:06:16.730Z,1.23
2018-04-14T10:08:42.987Z,0.60
2018-04-14T10:11:09.236Z,2.50
2018-04-14T10:13:35.447Z,60.43
2018-04-14T10:16:01.707Z,57.30
2018-04-14T10:18:27.866Z,33.37
2018-04-14T10:20:54.071Z,56.07
2018-04-14T10:23:20.972Z,43.97
2018-04-14T10:25:47.127Z,44.83
2018-04-14T10:28:13.264Z,53.90
2018-04-14T10:30:39.440Z,50.50
2018-04-14T10:33:06.340Z,54.63
2018-04-14T10:35:32.460Z,44.70
2018-04-14T10:37:58.694Z,41.23
2018-04-14T10:40:25.539Z,46.33
2018-04-14T10:42:51.667Z,37.90
2018-04-14T10:45:17.826Z,43.50
2018-04-14T10:47:44.711Z,49.97
2018-04-14T10:50:10.888Z,43.60
2018-04-14T10:52:37.755Z,50.27
2018-04-14T10:55:03.937Z,42.20
2018-04-14T10:57:30.092Z,36.97
2018-04-14T10:59:56.975Z,47.07
2018-04-14T11:02:23.144Z,44.13
2018-04-14T11:04:49.284Z,43.10
2018-04-14T11:07:15.425Z,44.90
2018-04-14T11:09:42.317Z,44.83
2018-04-14T11:12:08.456Z,36.70
2018-04-14T11:14:34.623Z,38.10
2018-04-14T11:17:01.496Z,38.73
2018-04-14T11:19:27.624Z,44.57
2018-04-14T11:21:53.786Z,40.80
2018-04-14T11:24:19.935Z,37.30
2018-04-14T11:26:46.815Z,41.03
2018-04-14T11:29:12.951Z,45.17
2018-04-14T11:31:39.088Z,40.90
2018-04-14T11:34:05.241Z,39.53
2018-04-14T11:36:31.391Z,37.23
2018-04-14T11:38:58.266Z,39.07
2018-04-14T11:41:24.404Z,39.00
2018-04-14T11:43:50.602Z,45.83
2018-04-14T11:46:16.740Z,40.13
2018-04-14T11:48:42.932Z,43.70
2018-04-14T11:51:09.842Z,40.70
2018-04-14T11:53:35.999Z,39.40
2018-04-14T11:56:02.278Z,37.63
2018-04-14T11:58:28.407Z,31.20
2018-04-14T12:00:54.591Z,39.60
2018-04-14T12:03:21.475Z,32.40
2018-04-14T12:05:47.663Z,39.67
2018-04-14T12:08:14.542Z,35.10
2018-04-14T12:10:40.684Z,42.07
2018-04-14T12:13:06.847Z,36.17
2018-04-14T12:15:33.034Z,42.37
2018-04-14T12:17:59.292Z,39.73
2018-04-14T12:20:25.439Z,40.40
2018-04-14T12:22:51.579Z,41.00
2018-04-14T12:25:18.456Z,33.17
2018-04-14T12:27:44.690Z,35.93
2018-04-14T12:30:10.804Z,24.03
2018-04-14T12:32:37.024Z,33.03
2018-04-14T12:35:03.200Z,39.70
2018-04-14T12:37:29.352Z,34.33
2018-04-14T12:39:56.220Z,35.33
2018-04-14T12:42:23.131Z,38.23
2018-04-14T12:44:50.036Z,38.73
2018-04-14T12:47:16.174Z,34.90
2018-04-14T12:49:42.324Z,38.00
2018-04-14T12:52:09.214Z,37.87
2018-04-14T12:54:35.348Z,30.93
2018-04-14T12:57:01.485Z,39.33
2018-04-14T12:59:27.625Z,36.83
2018-04-14T13:01:53.864Z,38.43
2018-04-14T13:04:20.104Z,38.27
2018-04-14T13:06:47.049Z,36.30
2018-04-14T13:09:14.004Z,38.20
2018-04-14T13:11:40.868Z,32.83
2018-04-14T13:14:07.058Z,37.93
2018-04-14T13:16:33.195Z,32.90
2018-04-14T13:19:00.078Z,32.00
2018-04-14T13:21:26.222Z,35.60
2018-04-14T13:23:52.360Z,31.33
2018-04-14T13:26:18.536Z,31.70
2018-04-14T13:28:44.707Z,30.80
2018-04-14T13:31:10.871Z,27.60
2018-04-14T13:33:37.763Z,29.97
2018-04-14T13:36:03.893Z,31.07
2018-04-14T13:38:30.789Z,35.37
2018-04-14T13:40:57.658Z,30.37
2018-04-14T13:43:23.836Z,27.80
2018-04-14T13:45:49.968Z,24.70
2018-04-14T13:48:16.188Z,26.90
2018-04-14T13:50:43.825Z,33.60
2018-04-14T13:53:09.972Z,32.13
2018-04-14T13:55:36.118Z,35.97
2018-04-14T13:58:03.003Z,29.20
2018-04-14T14:00:29.881Z,29.40
2018-04-14T14:02:56.011Z,32.57
2018-04-14T14:05:22.195Z,31.03
2018-04-14T14:07:48.348Z,32.70
2018-04-14T14:10:14.468Z,27.77
2018-04-14T14:12:40.620Z,28.27
2018-04-14T14:15:06.768Z,37.03
2018-04-14T14:17:33.672Z,31.83
2018-04-14T14:20:00.736Z,35.57
2018-04-14T14:22:26.887Z,33.43
2018-04-14T14:24:53.814Z,30.80
2018-04-14T14:27:19.989Z,30.43
2018-04-14T14:29:46.935Z,57.07
2018-04-14T14:32:13.210Z,34.00
2018-04-14T14:34:39.409Z,36.67
2018-04-14T14:37:05.550Z,32.40
2018-04-14T14:39:31.810Z,33.40
2018-04-14T14:41:58.740Z,34.60
2018-04-14T14:44:24.976Z,34.63
2018-04-14T14:46:51.240Z,34.73
2018-04-14T14:49:17.524Z,36.83
2018-04-14T14:51:44.801Z,35.80
2018-04-14T14:54:11.762Z,31.27
2018-04-14T14:56:39.775Z,35.20
2018-04-14T14:59:06.097Z,36.77
2018-04-14T15:01:32.814Z,34.20
2018-04-14T15:03:58.989Z,35.57
2018-04-14T15:06:29.053Z,38.23
2018-04-14T15:08:55.588Z,38.53
2018-04-14T15:11:21.876Z,37.93
2018-04-14T15:13:48.131Z,37.47
2018-04-14T15:16:15.079Z,44.10
2018-04-14T15:18:42.024Z,40.47
2018-04-14T15:21:09.107Z,43.43
2018-04-14T15:23:35.360Z,37.60
2018-04-14T15:26:01.556Z,36.10
2018-04-14T15:28:27.736Z,41.50
2018-04-14T15:30:55.864Z,41.03
2018-04-14T15:33:22.043Z,41.30
2018-04-14T15:35:48.963Z,46.60
2018-04-14T15:38:15.849Z,46.13
2018-04-14T15:40:42.096Z,40.87
2018-04-14T15:43:08.347Z,40.40
2018-04-14T15:45:34.577Z,46.80
2018-04-14T15:48:00.835Z,41.60
2018-04-14T15:50:27.104Z,42.03
2018-04-14T15:52:53.333Z,42.40
2018-04-14T15:55:19.592Z,43.13
2018-04-14T15:57:45.816Z,43.80
2018-04-14T16:00:12.052Z,43.13
2018-04-14T16:02:38.370Z,45.50
2018-04-14T16:05:04.563Z,44.73
2018-04-14T16:07:30.772Z,48.97
2018-04-14T16:09:56.999Z,47.07
2018-04-14T16:12:23.998Z,42.47
2018-04-14T16:14:50.252Z,45.10
2018-04-14T16:17:16.469Z,44.10
2018-04-14T16:19:42.712Z,49.13
2018-04-14T16:22:08.979Z,42.70
2018-04-14T16:24:35.213Z,45.50
2018-04-14T16:27:03.296Z,43.23
2018-04-14T16:29:29.533Z,52.07
2018-04-14T16:31:55.792Z,42.70
2018-04-14T16:34:22.073Z,50.10
2018-04-14T16:36:48.264Z,45.27
2018-04-14T16:39:15.310Z,46.67
2018-04-14T16:41:41.556Z,47.30
2018-04-14T16:44:08.512Z,41.53
2018-04-14T16:46:35.467Z,48.57
2018-04-14T16:49:01.707Z,48.63
2018-04-14T16:51:27.956Z,47.27
2018-04-14T16:53:54.172Z,49.33
2018-04-14T16:56:20.316Z,45.40
2018-04-14T16:58:47.306Z,57.10
2018-04-14T17:01:14.274Z,46.63
2018-04-14T17:03:40.509Z,52.13
2018-04-14T17:06:06.756Z,53.67
2018-04-14T17:08:32.985Z,48.97
2018-04-14T17:10:59.231Z,48.67
2018-04-14T17:13:25.483Z,53.07
2018-04-14T17:15:51.617Z,60.93
2018-04-14T17:18:18.509Z,50.43
2018-04-14T17:20:44.651Z,57.00
2018-04-14T17:23:10.795Z,50.63
2018-04-14T17:25:37.050Z,55.40
2018-04-14T17:28:03.936Z,49.23
2018-04-14T17:30:30.081Z,54.37
2018-04-14T17:32:56.255Z,52.07
2018-04-14T17:35:22.497Z,53.50
2018-04-14T17:37:48.697Z,55.47
2018-04-14T17:40:15.576Z,54.17
2018-04-14T17:42:41.709Z,54.53
2018-04-14T17:45:07.876Z,52.37
2018-04-14T17:47:34.788Z,55.60
2018-04-14T17:50:00.928Z,62.80
2018-04-14T17:52:27.068Z,55.70
2018-04-14T17:54:54.944Z,56.10
2018-04-14T17:57:21.088Z,56.13
2018-04-14T17:59:48.032Z,54.37
2018-04-14T18:02:14.417Z,52.17
2018-04-14T18:04:40.627Z,49.90
2018-04-14T18:07:06.806Z,55.40
2018-04-14T18:09:33.091Z,56.57
2018-04-14T18:11:59.302Z,60.27
2018-04-14T18:14:25.507Z,58.87
2018-04-14T18:16:52.420Z,58.33
2018-04-14T18:19:18.689Z,55.13
2018-04-14T18:22:00.588Z,59.37
2018-04-14T18:24:26.719Z,61.00
2018-04-14T18:26:52.861Z,56.27
2018-04-14T18:29:19.023Z,57.93
2018-04-14T18:31:45.190Z,65.80
2018-04-14T18:34:11.425Z,54.73
2018-04-14T18:36:37.597Z,62.63
2018-04-14T18:39:04.575Z,58.07
2018-04-14T18:41:31.467Z,61.30
2018-04-14T18:43:57.626Z,59.37
2018-04-14T18:46:23.800Z,59.33
2018-04-14T18:48:49.952Z,59.30
2018-04-14T18:51:16.249Z,76.47
2018-04-14T18:53:42.302Z,76.60
2018-04-14T18:56:09.229Z,68.67
2018-04-14T18:58:35.401Z,60.33
2018-04-14T19:01:01.550Z,66.63
2018-04-14T19:03:28.460Z,68.87
2018-04-14T19:05:54.618Z,68.50
2018-04-14T19:08:21.487Z,73.53
2018-04-14T19:10:47.782Z,61.70
2018-04-14T19:13:13.958Z,60.30
2018-04-14T19:15:40.115Z,64.67
2018-04-14T19:18:06.295Z,67.00
2018-04-14T19:20:32.446Z,68.83
2018-04-14T19:22:58.613Z,66.57
2018-04-14T19:25:24.796Z,62.80
2018-04-14T19:27:50.931Z,62.30
2018-04-14T19:30:17.063Z,64.60
2018-04-14T19:32:43.265Z,58.47
2018-04-14T19:35:24.329Z,74.73
2018-04-14T19:37:50.615Z,74.90
2018-04-14T19:40:16.663Z,69.07
2018-04-14T19:42:43.540Z,69.37
2018-04-14T19:45:09.737Z,69.97
2018-04-14T19:47:37.703Z,67.47
2018-04-14T19:50:04.580Z,72.80
2018-04-14T19:52:30.727Z,73.17
2018-04-14T19:54:56.895Z,69.53
2018-04-14T19:57:23.040Z,66.80
2018-04-14T19:59:49.925Z,76.23
2018-04-14T20:02:16.075Z,75.57
2018-04-14T20:04:42.212Z,60.57
2018-04-14T20:07:08.625Z,66.00
2018-04-14T20:09:34.824Z,66.27
2018-04-14T20:12:00.991Z,67.43
2018-04-14T20:14:28.584Z,75.90
2018-04-14T20:16:55.051Z,82.60
2018-04-14T20:19:21.184Z,70.60
2018-04-14T20:21:47.408Z,67.60
2018-04-14T20:24:14.032Z,77.43
2018-04-14T20:26:40.195Z,68.07
2018-04-14T20:29:06.684Z,75.60
2018-04-14T20:31:32.853Z,83.87
2018-04-14T20:33:59.025Z,77.73
2018-04-14T20:36:25.251Z,70.90
2018-04-14T20:38:51.521Z,72.63
2018-04-14T20:41:17.703Z,77.23
2018-04-14T20:43:44.595Z,79.03
2018-04-14T20:46:10.767Z,85.13
2018-04-14T20:48:37.929Z,81.37
2018-04-14T20:51:04.140Z,75.87
2018-04-14T20:53:30.305Z,76.70
2018-04-14T20:55:56.459Z,78.07
2018-04-14T20:58:22.623Z,69.60
2018-04-14T21:00:48.775Z,80.77
2018-04-14T21:03:15.460Z,81.17
2018-04-14T21:05:41.604Z,80.77
2018-04-14T21:08:07.766Z,79.03
2018-04-14T21:10:33.920Z,82.83
2018-04-14T21:13:00.151Z,78.20
2018-04-14T21:15:26.364Z,78.40
2018-04-14T21:20:44.515Z,64.97
2018-04-14T21:23:10.733Z,64.40
2018-04-14T21:25:36.976Z,72.33
2018-04-14T21:28:03.208Z,77.53
2018-04-14T21:30:29.453Z,70.67
2018-04-14T21:32:55.692Z,67.77
2018-04-14T21:35:21.944Z,74.47
2018-04-14T21:37:48.184Z,71.13
2018-04-14T21:40:15.128Z,65.40
2018-04-14T21:42:42.104Z,73.50
2018-04-14T21:45:08.312Z,71.60
2018-04-14T21:47:35.713Z,69.33
2018-04-14T21:50:02.688Z,67.07
2018-04-14T21:52:28.886Z,74.67
2018-04-14T21:54:55.140Z,67.63
2018-04-14T21:57:21.422Z,68.90
2018-04-14T21:59:47.632Z,78.70
2018-04-14T22:02:13.852Z,71.37
2018-04-14T22:04:40.848Z,67.60
2018-04-14T22:07:07.096Z,71.57
2018-04-14T22:09:33.255Z,72.37
2018-04-14T22:12:00.137Z,65.43
2018-04-14T22:14:32.327Z,76.07
2018-04-14T22:16:58.463Z,91.07
2018-04-14T22:19:24.631Z,72.77
2018-04-14T22:21:50.787Z,78.90
2018-04-14T22:24:17.096Z,73.57
2018-04-14T22:26:43.228Z,82.47
2018-04-14T22:29:09.357Z,75.80
2018-04-14T22:31:35.505Z,84.73
2018-04-14T22:34:02.504Z,72.23
2018-04-14T22:36:29.499Z,72.90
2018-04-14T22:38:56.383Z,72.67
2018-04-14T22:41:23.252Z,70.93
2018-04-14T22:43:49.439Z,71.83
2018-04-14T22:46:15.637Z,71.47
2018-04-14T22:48:41.770Z,68.13
2018-04-14T22:51:07.924Z,80.23
2018-04-14T22:53:34.868Z,68.80
2018-04-14T22:56:01.003Z,76.37
2018-04-14T22:58:27.883Z,77.77
2018-04-14T23:00:55.244Z,69.80
2018-04-14T23:03:21.380Z,68.57
2018-04-14T23:05:47.542Z,79.30
2018-04-14T23:08:13.658Z,66.53
2018-04-14T23:10:39.795Z,74.10
2018-04-14T23:13:05.931Z,80.03
2018-04-14T23:15:32.812Z,74.40
2018-04-14T23:17:58.940Z,80.13
2018-04-14T23:20:25.100Z,77.70
2018-04-14T23:22:51.344Z,62.40
2018-04-14T23:25:17.583Z,70.53
2018-04-14T23:27:44.470Z,71.47
2018-04-14T23:30:10.668Z,69.70
2018-04-14T23:32:37.564Z,62.30
2018-04-14T23:35:03.703Z,67.80
2018-04-14T23:37:29.856Z,67.30
2018-04-14T23:39:56.719Z,73.47
2018-04-14T23:42:22.856Z,57.17
2018-04-14T23:44:49.002Z,60.97
2018-04-14T23:47:15.148Z,60.33
2018-04-14T23:49:41.275Z,72.73
2018-04-14T23:52:07.427Z,62.00
2018-04-14T23:54:34.307Z,61.43
2018-04-14T23:57:00.475Z,57.47
2018-04-14T23:59:26.772Z,66.77
